createdAt,value
2024-02-08T00:02:18.802Z,8.15
2024-02-08T00:04:51.721Z,8.05
2024-02-08T00:07:23.593Z,7.00
2024-02-08T00:09:56.342Z,6.22
2024-02-08T00:12:28.076Z,5.07
2024-02-08T00:14:59.774Z,5.45
2024-02-08T00:17:33.569Z,4.82
2024-02-08T00:20:07.664Z,4.60
2024-02-08T00:22:52.527Z,4.63
2024-02-08T00:25:27.278Z,4.68
2024-02-08T00:27:59.051Z,4.78
2024-02-08T00:30:30.866Z,4.63
2024-02-08T00:33:03.530Z,4.43
2024-02-08T00:35:35.642Z,4.70
2024-02-08T00:38:08.287Z,4.13
2024-02-08T00:40:40.073Z,4.25
2024-02-08T00:43:11.770Z,4.55
2024-02-08T00:45:43.577Z,4.45
2024-02-08T00:48:15.458Z,3.92
2024-02-08T00:50:47.351Z,4.95
2024-02-08T00:53:20.471Z,4.45
2024-02-08T00:55:52.275Z,4.70
2024-02-08T00:58:25.830Z,4.40
2024-02-08T01:00:57.588Z,4.55
2024-02-08T01:03:29.411Z,4.35
2024-02-08T01:06:03.561Z,4.20
2024-02-08T01:08:35.406Z,4.65
2024-02-08T01:11:07.299Z,4.38
2024-02-08T01:13:42.478Z,4.90
2024-02-08T01:16:15.574Z,5.05
2024-02-08T01:18:47.529Z,4.13
2024-02-08T01:21:21.287Z,4.90
2024-02-08T01:23:53.430Z,5.13
2024-02-08T01:26:25.837Z,4.68
2024-02-08T01:28:57.710Z,4.47
2024-02-08T01:31:32.147Z,5.40
2024-02-08T01:34:06.539Z,4.30
2024-02-08T01:36:41.674Z,5.93
2024-02-08T01:39:14.491Z,6.15
2024-02-08T01:41:46.330Z,4.80
2024-02-08T01:44:18.156Z,5.47
2024-02-08T01:46:57.707Z,5.32
2024-02-08T01:49:30.981Z,5.20
2024-02-08T01:52:05.136Z,4.82
2024-02-08T01:54:42.961Z,4.78
2024-02-08T01:57:15.641Z,4.20
2024-02-08T01:59:54.325Z,4.50
2024-02-08T02:02:28.551Z,4.68
2024-02-08T02:05:00.361Z,4.25
2024-02-08T02:07:33.337Z,4.03
2024-02-08T02:10:05.437Z,3.72
2024-02-08T02:12:37.320Z,3.78
2024-02-08T02:15:09.270Z,4.57
2024-02-08T02:17:45.992Z,4.43
2024-02-08T02:20:20.352Z,4.03
2024-02-08T02:22:52.415Z,4.60
2024-02-08T02:25:26.881Z,4.50
2024-02-08T02:27:59.930Z,4.80
2024-02-08T02:30:32.318Z,5.50
2024-02-08T02:33:07.603Z,4.78
2024-02-08T02:35:40.984Z,4.93
2024-02-08T02:38:15.454Z,5.35
2024-02-08T02:40:47.963Z,4.25
2024-02-08T02:43:27.696Z,4.15
2024-02-08T02:45:59.757Z,4.35
2024-02-08T02:48:33.139Z,4.43
2024-02-08T02:51:05.366Z,4.90
2024-02-08T02:53:37.346Z,4.32
2024-02-08T02:56:09.826Z,4.05
2024-02-08T02:58:41.669Z,3.92
2024-02-08T03:01:13.461Z,4.03
2024-02-08T03:03:48.552Z,3.72
2024-02-08T03:06:20.373Z,3.70
2024-02-08T03:08:52.205Z,3.80
2024-02-08T03:11:29.242Z,4.00
2024-02-08T03:14:06.012Z,3.92
2024-02-08T03:16:42.419Z,3.92
2024-02-08T03:19:15.462Z,3.22
2024-02-08T03:21:47.542Z,3.63
2024-02-08T03:24:20.956Z,4.00
2024-02-08T03:26:53.146Z,3.72
2024-02-08T03:29:27.458Z,3.70
2024-02-08T03:31:59.433Z,3.92
2024-02-08T03:34:36.852Z,4.57
2024-02-08T03:37:18.106Z,3.33
2024-02-08T03:39:50.681Z,4.07
2024-02-08T03:42:23.398Z,3.97
2024-02-08T03:44:55.084Z,3.70
2024-02-08T03:47:30.647Z,3.92
2024-02-08T03:50:02.840Z,4.35
2024-02-08T03:52:38.724Z,4.05
2024-02-08T03:55:14.759Z,3.65
2024-02-08T03:57:50.679Z,4.07
2024-02-08T04:00:31.615Z,4.20
2024-02-08T04:03:07.704Z,4.45
2024-02-08T04:05:51.625Z,3.90
2024-02-08T04:08:44.363Z,4.30
2024-02-08T04:11:34.650Z,4.60
2024-02-08T04:14:25.085Z,4.35
2024-02-08T04:17:18.620Z,4.82
2024-02-08T04:20:09.248Z,5.40
2024-02-08T04:23:00.038Z,4.93
2024-02-08T04:25:50.411Z,4.93
2024-02-08T04:28:40.938Z,5.25
2024-02-08T04:31:35.688Z,6.40
2024-02-08T04:34:27.952Z,5.40
2024-02-08T04:37:18.737Z,5.63
2024-02-08T04:40:09.254Z,5.88
2024-02-08T04:42:59.574Z,5.68
2024-02-08T04:45:49.996Z,5.65
2024-02-08T04:48:40.604Z,4.82
2024-02-08T04:51:33.968Z,5.38
2024-02-08T04:54:10.581Z,4.90
2024-02-08T04:56:42.393Z,4.95
2024-02-08T04:59:23.662Z,5.40
2024-02-08T05:01:56.012Z,6.38
2024-02-08T05:04:33.281Z,5.35
2024-02-08T05:07:07.117Z,5.55
2024-02-08T05:09:41.228Z,5.45
2024-02-08T05:12:14.149Z,5.93
2024-02-08T05:14:49.159Z,6.13
2024-02-08T05:17:23.502Z,7.30
2024-02-08T05:19:56.200Z,5.38
2024-02-08T05:22:27.994Z,5.55
2024-02-08T05:24:59.935Z,5.35
2024-02-08T05:27:32.242Z,5.10
2024-02-08T05:30:04.668Z,5.38
2024-02-08T05:32:40.646Z,5.53
2024-02-08T05:35:20.677Z,5.32
2024-02-08T05:37:55.028Z,5.97
2024-02-08T05:40:27.168Z,5.82
2024-02-08T05:43:00.263Z,6.32
2024-02-08T05:45:34.535Z,6.43
2024-02-08T05:48:09.482Z,6.05
2024-02-08T05:50:45.793Z,6.97
2024-02-08T05:53:19.343Z,6.38
2024-02-08T05:55:53.804Z,6.65
2024-02-08T05:58:28.470Z,7.00
2024-02-08T06:01:06.945Z,7.00
2024-02-08T06:03:39.247Z,6.72
2024-02-08T06:06:18.291Z,7.18
2024-02-08T06:08:57.508Z,6.63
2024-02-08T06:11:31.686Z,7.10
2024-02-08T06:14:13.874Z,7.57
2024-02-08T06:16:48.382Z,6.93
2024-02-08T06:19:23.143Z,6.75
2024-02-08T06:24:33.881Z,6.53
2024-02-08T06:27:29.564Z,6.97
2024-02-08T06:30:09.441Z,6.90
2024-02-08T06:32:46.900Z,7.05
2024-02-08T06:35:21.908Z,6.65
2024-02-08T06:38:06.678Z,6.45
2024-02-08T06:40:41.813Z,7.15
2024-02-08T06:43:23.618Z,5.35
2024-02-08T06:45:59.032Z,6.60
2024-02-08T06:48:49.525Z,5.70
2024-02-08T06:51:42.197Z,5.35
2024-02-08T06:54:32.708Z,6.65
2024-02-08T06:57:23.597Z,6.47
2024-02-08T07:00:13.968Z,5.88
2024-02-08T07:03:04.101Z,5.50
2024-02-08T07:05:54.394Z,5.57
2024-02-08T07:08:46.436Z,5.82
2024-02-08T07:11:37.152Z,6.78
2024-02-08T07:14:27.591Z,6.22
2024-02-08T07:17:17.943Z,6.85
2024-02-08T07:20:09.195Z,5.95
2024-02-08T07:22:59.533Z,5.95
2024-02-08T07:25:49.860Z,6.45
2024-02-08T07:28:40.200Z,6.88
2024-02-08T07:31:30.477Z,6.47
2024-02-08T07:34:20.869Z,6.97
2024-02-08T07:37:14.877Z,6.22
2024-02-08T07:39:55.398Z,7.07
2024-02-08T07:42:45.465Z,7.97
2024-02-08T07:45:17.247Z,6.80
2024-02-08T07:47:58.932Z,7.20
2024-02-08T07:50:37.231Z,7.80
2024-02-08T07:53:35.476Z,7.07
2024-02-08T07:56:30.527Z,6.50
2024-02-08T07:59:05.870Z,6.57
2024-02-08T08:01:41.672Z,6.25
2024-02-08T08:04:29.357Z,8.10
2024-02-08T08:07:02.273Z,9.10
2024-02-08T08:09:40.278Z,7.63
2024-02-08T08:12:12.013Z,7.20
2024-02-08T08:14:43.702Z,7.68
2024-02-08T08:17:32.775Z,6.80
2024-02-08T08:20:17.928Z,7.03
2024-02-08T08:22:56.310Z,6.85
2024-02-08T08:25:31.305Z,6.57
2024-02-08T08:28:31.581Z,5.68
2024-02-08T08:31:24.117Z,5.80
2024-02-08T08:34:02.432Z,6.43
2024-02-08T08:36:36.238Z,5.35
2024-02-08T08:39:34.339Z,5.53
2024-02-08T08:42:07.118Z,5.65
2024-02-08T08:44:39.661Z,6.35
2024-02-08T08:47:12.578Z,6.13
2024-02-08T08:49:45.411Z,6.07
2024-02-08T08:52:25.303Z,6.45
2024-02-08T08:55:18.871Z,5.53
2024-02-08T08:58:01.606Z,5.35
2024-02-08T09:00:34.115Z,6.25
2024-02-08T09:03:06.307Z,5.72
2024-02-08T09:05:38.461Z,5.72
2024-02-08T09:08:11.959Z,6.07
2024-02-08T09:10:43.924Z,5.97
2024-02-08T09:13:19.975Z,6.30
2024-02-08T09:16:20.395Z,7.80
2024-02-08T09:19:04.128Z,6.82
2024-02-08T09:21:37.571Z,7.07
2024-02-08T09:24:19.133Z,6.68
2024-02-08T09:26:53.517Z,6.40
2024-02-08T09:29:29.834Z,6.43
2024-02-08T09:32:25.231Z,5.65
2024-02-08T09:35:00.068Z,5.78
2024-02-08T09:37:33.958Z,5.32
2024-02-08T09:40:19.640Z,6.55
2024-02-08T09:42:58.668Z,5.93
2024-02-08T09:45:33.439Z,6.47
2024-02-08T09:48:16.871Z,6.00
2024-02-08T09:50:51.596Z,6.03
2024-02-08T09:53:31.378Z,5.50
2024-02-08T09:56:27.736Z,5.20
2024-02-08T09:59:10.511Z,5.18
2024-02-08T10:01:46.971Z,5.60
2024-02-08T10:04:26.451Z,4.97
2024-02-08T10:07:04.547Z,4.63
2024-02-08T10:09:42.059Z,4.30
2024-02-08T10:12:21.931Z,5.03
2024-02-08T10:15:00.904Z,4.25
2024-02-08T10:17:43.422Z,4.20
2024-02-08T10:20:22.514Z,4.40
2024-02-08T10:23:10.482Z,3.90
2024-02-08T10:26:02.009Z,4.22
2024-02-08T10:28:34.302Z,3.55
2024-02-08T10:31:07.864Z,3.20
2024-02-08T10:33:40.798Z,3.53
2024-02-08T10:36:16.978Z,3.20
2024-02-08T10:38:59.104Z,3.60
2024-02-08T10:41:55.663Z,2.83
2024-02-08T10:44:31.458Z,3.08
2024-02-08T10:47:11.149Z,2.60
2024-02-08T10:49:44.410Z,2.72
2024-02-08T10:52:22.736Z,2.70
2024-02-08T10:54:57.882Z,2.90
2024-02-08T10:57:39.045Z,2.67
2024-02-08T11:00:33.696Z,2.70
2024-02-08T11:03:16.148Z,3.30
2024-02-08T11:06:02.108Z,3.20
2024-02-08T11:08:38.216Z,3.25
2024-02-08T11:11:13.606Z,3.08
2024-02-08T11:13:47.197Z,3.05
2024-02-08T11:16:25.416Z,3.10
2024-02-08T11:18:59.011Z,3.22
2024-02-08T11:21:45.217Z,3.35
2024-02-08T11:24:30.362Z,3.05
2024-02-08T11:29:48.984Z,3.45
2024-02-08T11:32:23.792Z,3.50
2024-02-08T11:35:02.093Z,3.15
2024-02-08T11:37:39.756Z,3.35
2024-02-08T11:40:13.930Z,2.92
2024-02-08T11:42:46.719Z,3.70
2024-02-08T11:45:23.540Z,3.10
2024-02-08T11:47:59.615Z,3.22
2024-02-08T11:50:37.705Z,3.03
2024-02-08T11:53:10.905Z,3.33
2024-02-08T11:55:46.832Z,2.50
2024-02-08T11:58:23.166Z,2.85
2024-02-08T12:01:00.137Z,2.80
2024-02-08T12:03:35.409Z,2.78
2024-02-08T12:06:07.643Z,3.88
2024-02-08T12:08:43.382Z,4.30
2024-02-08T12:11:21.480Z,3.85
2024-02-08T12:16:40.182Z,4.22
2024-02-08T12:19:16.794Z,4.72
2024-02-08T12:22:05.560Z,4.78
2024-02-08T12:24:37.879Z,5.30
2024-02-08T12:27:16.545Z,5.53
2024-02-08T12:29:52.107Z,5.68
2024-02-08T12:32:31.805Z,5.80
2024-02-08T12:35:14.938Z,6.75
2024-02-08T12:37:50.023Z,6.90
2024-02-08T12:40:22.195Z,7.68
2024-02-08T12:42:55.205Z,6.70
2024-02-08T12:45:30.452Z,7.80
2024-02-08T12:48:06.089Z,6.82
2024-02-08T12:50:40.146Z,7.30
2024-02-08T12:53:14.588Z,6.60
2024-02-08T12:55:48.390Z,6.30
2024-02-08T12:58:20.322Z,6.13
2024-02-08T13:01:05.829Z,7.18
2024-02-08T13:03:38.526Z,6.32
2024-02-08T13:06:15.618Z,6.22
2024-02-08T13:08:47.732Z,5.90
2024-02-08T13:11:25.346Z,4.82
2024-02-08T13:14:06.099Z,4.57
2024-02-08T13:16:37.873Z,4.57
2024-02-08T13:19:15.241Z,4.68
2024-02-08T13:21:47.206Z,3.67
2024-02-08T13:24:20.163Z,4.00
2024-02-08T13:26:51.872Z,3.90
2024-02-08T13:29:27.618Z,4.95
2024-02-08T13:32:00.275Z,5.00
2024-02-08T13:34:35.067Z,5.60
2024-02-08T13:37:07.002Z,5.45
2024-02-08T13:39:39.084Z,5.25
2024-02-08T13:42:12.318Z,5.43
2024-02-08T13:44:45.688Z,5.32
2024-02-08T13:47:22.373Z,6.30
2024-02-08T13:50:00.619Z,5.93
2024-02-08T13:52:32.375Z,6.43
2024-02-08T13:55:08.881Z,5.75
2024-02-08T13:57:41.368Z,6.43
2024-02-08T14:00:22.078Z,6.00
2024-02-08T14:02:58.469Z,6.68
2024-02-08T14:05:38.154Z,6.85
2024-02-08T14:08:11.241Z,7.38
2024-02-08T14:10:44.886Z,6.87
2024-02-08T14:13:20.567Z,6.50
2024-02-08T14:15:57.109Z,7.07
2024-02-08T14:18:39.096Z,7.13
2024-02-08T14:21:20.933Z,7.68
2024-02-08T14:23:59.627Z,8.48
2024-02-08T14:26:34.997Z,7.70
2024-02-08T14:29:07.789Z,7.03
2024-02-08T14:31:41.243Z,8.40
2024-02-08T14:34:15.720Z,8.73
2024-02-08T14:36:50.366Z,8.05
2024-02-08T14:39:34.083Z,7.55
2024-02-08T14:42:13.966Z,8.45
2024-02-08T14:44:51.539Z,9.18
2024-02-08T14:47:26.332Z,8.50
2024-02-08T14:50:02.463Z,9.45
2024-02-08T14:52:45.470Z,8.65
2024-02-08T14:55:24.018Z,9.70
2024-02-08T14:58:00.210Z,9.32
2024-02-08T15:00:32.694Z,9.25
2024-02-08T15:03:10.202Z,10.80
2024-02-08T15:06:01.042Z,10.20
2024-02-08T15:08:47.320Z,9.48
2024-02-08T15:11:40.015Z,10.38
2024-02-08T15:14:18.065Z,10.45
2024-02-08T15:16:49.813Z,10.27
2024-02-08T15:19:27.474Z,10.27
2024-02-08T15:22:19.945Z,11.63
2024-02-08T15:24:58.240Z,10.63
2024-02-08T15:27:33.288Z,11.50
2024-02-08T15:30:12.497Z,10.38
2024-02-08T15:33:18.084Z,11.32
2024-02-08T15:36:01.078Z,11.40
2024-02-08T15:38:33.878Z,12.35
2024-02-08T15:41:10.707Z,12.13
2024-02-08T15:43:42.495Z,12.43
2024-02-08T15:46:21.632Z,14.00
2024-02-08T15:48:55.501Z,13.50
2024-02-08T15:51:38.291Z,13.05
2024-02-08T15:54:23.101Z,13.10
2024-02-08T15:56:54.950Z,12.50
2024-02-08T15:59:28.947Z,11.05
2024-02-08T16:02:07.165Z,10.77
2024-02-08T16:04:44.696Z,11.68
2024-02-08T16:07:17.701Z,10.25
2024-02-08T16:09:51.464Z,9.77
2024-02-08T16:12:24.317Z,11.55
2024-02-08T16:15:06.414Z,10.73
2024-02-08T16:17:40.507Z,10.70
2024-02-08T16:20:12.835Z,10.63
2024-02-08T16:22:56.670Z,9.13
2024-02-08T16:25:48.936Z,10.48
2024-02-08T16:28:25.049Z,10.75
2024-02-08T16:31:11.886Z,10.27
2024-02-08T16:33:54.430Z,10.57
2024-02-08T16:36:30.822Z,9.65
2024-02-08T16:39:22.826Z,9.90
2024-02-08T16:42:01.494Z,9.35
2024-02-08T16:44:52.185Z,8.75
2024-02-08T16:47:29.419Z,8.48
2024-02-08T16:50:18.102Z,8.23
2024-02-08T16:52:59.414Z,8.27
2024-02-08T16:55:48.095Z,9.65
2024-02-08T16:58:30.332Z,9.15
2024-02-08T17:01:06.561Z,9.95
2024-02-08T17:03:51.028Z,8.82
2024-02-08T17:06:52.355Z,8.38
2024-02-08T17:09:35.202Z,8.25
2024-02-08T17:12:19.229Z,9.50
2024-02-08T17:14:55.198Z,9.13
2024-02-08T17:17:37.107Z,9.48
2024-02-08T17:20:26.820Z,9.75
2024-02-08T17:23:06.790Z,9.50
2024-02-08T17:25:56.881Z,9.65
2024-02-08T17:28:51.090Z,9.32
2024-02-08T17:31:34.910Z,8.27
2024-02-08T17:34:11.169Z,9.88
2024-02-08T17:36:47.074Z,10.20
2024-02-08T17:39:37.352Z,9.40
2024-02-08T17:42:10.255Z,10.80
2024-02-08T17:44:50.618Z,11.43
2024-02-08T17:47:29.837Z,10.95
2024-02-08T17:50:06.031Z,10.77
2024-02-08T17:52:39.168Z,11.15
2024-02-08T17:55:16.438Z,11.30
2024-02-08T17:57:57.189Z,11.65
2024-02-08T18:00:29.338Z,11.15
2024-02-08T18:03:02.156Z,11.27
2024-02-08T18:05:37.317Z,12.23
2024-02-08T18:08:11.538Z,12.20
2024-02-08T18:10:45.277Z,13.15
2024-02-08T18:13:18.384Z,12.05
2024-02-08T18:15:59.052Z,12.52
2024-02-08T18:18:33.916Z,13.68
2024-02-08T18:23:47.084Z,11.95
2024-02-08T18:26:28.969Z,11.55
2024-02-08T18:29:05.359Z,13.10
2024-02-08T18:31:38.891Z,11.75
2024-02-08T18:34:11.228Z,11.05
2024-02-08T18:36:47.605Z,11.93
2024-02-08T18:39:28.962Z,11.63
2024-02-08T18:42:03.282Z,11.55
2024-02-08T18:44:36.810Z,12.00
2024-02-08T18:47:15.228Z,11.48
2024-02-08T18:49:50.761Z,11.60
2024-02-08T18:52:25.557Z,11.98
2024-02-08T18:55:00.637Z,12.25
2024-02-08T18:57:35.549Z,12.45
2024-02-08T19:02:46.900Z,12.13
2024-02-08T19:05:18.765Z,11.00
2024-02-08T19:07:52.503Z,14.23
2024-02-08T19:10:26.081Z,13.00
2024-02-08T19:13:00.722Z,13.80
2024-02-08T19:15:35.809Z,15.20
2024-02-08T19:18:16.057Z,13.82
2024-02-08T19:20:49.909Z,13.07
2024-02-08T19:23:25.661Z,14.27
2024-02-08T19:25:59.079Z,14.00
2024-02-08T19:28:37.968Z,14.05
2024-02-08T19:31:10.990Z,14.98
2024-02-08T19:33:48.579Z,13.75
2024-02-08T19:36:24.318Z,14.20
2024-02-08T19:38:57.790Z,14.93
2024-02-08T19:41:30.083Z,13.75
2024-02-08T19:44:02.706Z,14.50
2024-02-08T19:46:39.921Z,13.27
2024-02-08T19:49:17.215Z,14.68
2024-02-08T19:51:49.756Z,13.05
2024-02-08T19:54:21.498Z,13.50
2024-02-08T19:56:54.746Z,12.63
2024-02-08T19:59:29.046Z,14.23
2024-02-08T20:02:06.694Z,13.57
2024-02-08T20:04:42.247Z,14.75
2024-02-08T20:07:14.129Z,13.85
2024-02-08T20:09:47.564Z,14.43
2024-02-08T20:12:20.198Z,14.93
2024-02-08T20:14:57.903Z,13.98
2024-02-08T20:17:29.740Z,14.23
2024-02-08T20:20:02.448Z,14.68
2024-02-08T20:22:34.322Z,14.23
2024-02-08T20:25:06.733Z,15.32
2024-02-08T20:27:38.907Z,15.65
2024-02-08T20:30:22.400Z,15.30
2024-02-08T20:32:54.751Z,15.57
2024-02-08T20:35:35.972Z,18.15
2024-02-08T20:38:07.696Z,16.90
2024-02-08T20:40:42.074Z,17.80
2024-02-08T20:43:18.867Z,17.50
2024-02-08T20:45:50.961Z,18.42
2024-02-08T20:48:23.361Z,19.02
2024-02-08T20:50:56.825Z,18.17
2024-02-08T20:53:31.596Z,19.27
2024-02-08T20:56:04.981Z,19.70
2024-02-08T20:58:39.564Z,19.40
2024-02-08T21:01:11.821Z,19.70
2024-02-08T21:03:44.382Z,19.48
2024-02-08T21:06:16.108Z,21.63
2024-02-08T21:08:47.818Z,21.83
2024-02-08T21:11:19.589Z,21.20
2024-02-08T21:13:55.575Z,22.02
2024-02-08T21:16:30.885Z,20.55
2024-02-08T21:19:10.135Z,20.20
2024-02-08T21:21:41.992Z,21.75
2024-02-08T21:24:13.865Z,20.08
2024-02-08T21:26:52.650Z,20.45
2024-02-08T21:29:27.260Z,19.77
2024-02-08T21:32:00.888Z,19.83
2024-02-08T21:34:35.923Z,20.48
2024-02-08T21:37:08.301Z,18.77
2024-02-08T21:39:46.680Z,18.63
2024-02-08T21:42:21.021Z,19.10
2024-02-08T21:44:53.760Z,20.88
2024-02-08T21:47:27.854Z,20.85
2024-02-08T21:50:07.972Z,23.45
2024-02-08T21:52:40.040Z,21.98
2024-02-08T21:55:11.775Z,22.27
2024-02-08T21:57:43.491Z,20.23
2024-02-08T22:00:19.953Z,18.75
2024-02-08T22:02:51.751Z,19.00
2024-02-08T22:05:24.084Z,18.55
2024-02-08T22:07:58.768Z,19.35
2024-02-08T22:10:31.792Z,20.42
2024-02-08T22:13:09.119Z,18.00
2024-02-08T22:15:41.151Z,17.67
2024-02-08T22:18:13.989Z,19.40
2024-02-08T22:20:46.197Z,19.00
2024-02-08T22:23:17.896Z,18.83
2024-02-08T22:25:49.715Z,19.25
2024-02-08T22:28:21.511Z,18.88
2024-02-08T22:30:55.665Z,18.15
2024-02-08T22:33:27.414Z,17.85
2024-02-08T22:35:59.138Z,19.52
2024-02-08T22:38:30.838Z,19.00
2024-02-08T22:41:03.434Z,18.02
2024-02-08T22:43:39.920Z,19.45
2024-02-08T22:46:11.844Z,19.85
2024-02-08T22:48:43.648Z,18.77
2024-02-08T22:51:18.184Z,19.30
2024-02-08T22:53:50.810Z,18.05
2024-02-08T22:56:22.533Z,18.27
2024-02-08T22:58:54.270Z,19.42
2024-02-08T23:01:35.541Z,19.45
2024-02-08T23:04:16.142Z,19.10
2024-02-08T23:06:48.688Z,17.38
2024-02-08T23:09:20.661Z,19.25
2024-02-08T23:11:53.524Z,19.35
2024-02-08T23:14:31.079Z,19.77
2024-02-08T23:17:04.567Z,18.73
2024-02-08T23:19:36.334Z,20.27
2024-02-08T23:22:08.938Z,18.13
2024-02-08T23:24:42.361Z,19.02
2024-02-08T23:27:14.200Z,18.42
2024-02-08T23:29:45.918Z,18.98
2024-02-08T23:32:18.793Z,18.25
2024-02-08T23:34:53.731Z,16.63
2024-02-08T23:37:25.524Z,19.00
2024-02-08T23:39:57.296Z,18.55
2024-02-08T23:42:34.025Z,17.08
2024-02-08T23:47:39.265Z,17.60
2024-02-08T23:50:13.613Z,18.02
2024-02-08T23:52:45.431Z,17.70
2024-02-08T23:55:20.501Z,17.85
2024-02-08T23:57:53.256Z,17.27
